Time;durP1;ratioP1;P1;durP2;ratioP2;P2;SDS_P1;SDS_P2;PMS_P1;PMS_P2;Temp;Humidity;BMP_temperature;BMP_pressure;BME280_temperature;BME280_humidity;BME280_pressure;Samples;Min_cycle;Max_cycle;Signal;HPM_P1;HPM_P2
2021/01/28 00:02:21;;;;;;;11.65;6.53;;;3.20;99.90;;;;;;4996037;28;20195;-77
2021/01/28 00:04:46;;;;;;;10.65;5.65;;;3.30;99.90;;;;;;4987674;28;20052;-77
2021/01/28 00:07:12;;;;;;;12.43;6.95;;;3.30;99.90;;;;;;5009548;28;20042;-78
2021/01/28 00:09:37;;;;;;;10.88;6.07;;;3.40;99.90;;;;;;4991828;28;20038;-78
2021/01/28 00:12:03;;;;;;;13.27;6.22;;;3.40;99.90;;;;;;5010347;28;20029;-77
2021/01/28 00:14:29;;;;;;;15.23;6.70;;;3.40;99.90;;;;;;5014920;28;20422;-77
2021/01/28 00:16:55;;;;;;;13.35;6.45;;;3.40;99.90;;;;;;5009315;28;20675;-76
2021/01/28 00:19:20;;;;;;;13.20;5.60;;;3.40;99.90;;;;;;5008690;28;20033;-76
2021/01/28 00:21:46;;;;;;;11.00;5.55;;;3.40;99.90;;;;;;5011997;28;20281;-77
2021/01/28 00:24:11;;;;;;;10.38;5.32;;;3.40;99.90;;;;;;4990215;28;20033;-77
2021/01/28 00:26:37;;;;;;;10.43;5.93;;;3.40;99.90;;;;;;4998405;28;20092;-78
2021/01/28 00:29:04;;;;;;;8.85;4.72;;;3.40;99.90;;;;;;5006388;28;20038;-77
2021/01/28 00:31:29;;;;;;;12.60;5.32;;;3.40;99.90;;;;;;5008293;28;20561;-76
2021/01/28 00:33:55;;;;;;;11.13;5.40;;;3.40;99.90;;;;;;5008026;28;20124;-76
2021/01/28 00:36:20;;;;;;;12.02;5.30;;;3.40;99.90;;;;;;4989750;28;20372;-76
2021/01/28 00:38:46;;;;;;;7.30;4.13;;;3.50;99.90;;;;;;5006156;28;20522;-76
2021/01/28 00:41:12;;;;;;;8.73;4.65;;;3.40;99.90;;;;;;5011562;28;20060;-75
2021/01/28 00:43:38;;;;;;;9.52;4.78;;;3.40;99.90;;;;;;5013066;28;20051;-77
2021/01/28 00:46:05;;;;;;;8.15;4.07;;;3.50;99.90;;;;;;4992747;28;20034;-76
2021/01/28 00:48:31;;;;;;;7.25;4.45;;;3.50;99.90;;;;;;5012215;28;20045;-77
2021/01/28 00:50:59;;;;;;;7.63;4.13;;;3.50;99.90;;;;;;5009750;28;20042;-77
2021/01/28 00:53:25;;;;;;;7.15;4.18;;;3.50;99.90;;;;;;5008083;28;20125;-78
2021/01/28 00:55:51;;;;;;;8.70;4.88;;;3.60;99.90;;;;;;5013872;28;20626;-77
2021/01/28 00:58:20;;;;;;;8.05;4.55;;;3.60;99.90;;;;;;5012810;28;20620;-77
2021/01/28 01:00:47;;;;;;;6.95;3.90;;;3.50;99.90;;;;;;4994666;28;20040;-77
2021/01/28 01:03:16;;;;;;;11.25;4.70;;;3.50;99.90;;;;;;5013599;28;20053;-78
2021/01/28 01:05:43;;;;;;;6.72;4.18;;;3.50;99.90;;;;;;5014713;28;20176;-77
2021/01/28 01:08:15;;;;;;;8.75;4.30;;;3.50;99.90;;;;;;5003473;28;20614;-78
2021/01/28 01:10:44;;;;;;;10.82;4.40;;;3.50;99.90;;;;;;5015285;28;20052;-77
2021/01/28 01:13:14;;;;;;;9.00;4.70;;;3.50;99.90;;;;;;5011433;28;20045;-76
2021/01/28 01:15:40;;;;;;;8.13;4.53;;;3.50;99.90;;;;;;4997231;28;20426;-76
2021/01/28 01:18:11;;;;;;;7.10;3.85;;;3.50;99.90;;;;;;5014050;28;20038;-77
2021/01/28 01:20:37;;;;;;;5.25;2.70;;;3.50;99.90;;;;;;5013429;28;20038;-76
2021/01/28 01:23:03;;;;;;;6.47;4.05;;;3.60;99.90;;;;;;5012209;28;20529;-76
2021/01/28 01:25:29;;;;;;;6.82;3.75;;;3.60;99.90;;;;;;5014681;28;20045;-77
2021/01/28 01:27:55;;;;;;;5.18;2.83;;;3.70;99.90;;;;;;5012962;28;20042;-76
2021/01/28 01:30:22;;;;;;;7.13;3.58;;;3.70;99.90;;;;;;5015285;28;20038;-76
2021/01/28 01:32:48;;;;;;;5.43;3.30;;;3.70;99.90;;;;;;5012098;28;20124;-76
2021/01/28 01:35:16;;;;;;;6.75;3.70;;;3.80;99.90;;;;;;5012247;28;20490;-76
2021/01/28 01:37:42;;;;;;;6.50;3.20;;;3.80;99.90;;;;;;5013205;28;20076;-77
2021/01/28 01:40:11;;;;;;;7.70;3.72;;;3.80;99.90;;;;;;5012879;28;20061;-77
2021/01/28 01:42:40;;;;;;;4.80;2.63;;;3.80;99.90;;;;;;5014232;28;20460;-77
2021/01/28 01:45:08;;;;;;;8.32;3.53;;;3.80;99.90;;;;;;5011461;28;20048;-77
2021/01/28 01:47:45;;;;;;;4.93;2.85;;;3.80;99.90;;;;;;5013239;28;20037;-76
2021/01/28 01:50:38;;;;;;;5.80;3.25;;;3.80;99.90;;;;;;5011960;28;20382;-77
2021/01/28 01:53:10;;;;;;;5.07;2.80;;;3.80;99.90;;;;;;4993268;28;20651;-77
2021/01/28 01:55:37;;;;;;;4.13;2.53;;;3.90;99.90;;;;;;5013770;28;20050;-78
2021/01/28 01:58:05;;;;;;;3.90;2.40;;;3.90;99.90;;;;;;5008737;28;20042;-78
2021/01/28 02:00:31;;;;;;;4.07;2.33;;;3.90;99.90;;;;;;5003890;28;20073;-78
2021/01/28 02:03:01;;;;;;;4.10;2.40;;;3.90;99.90;;;;;;5014378;28;20038;-77
2021/01/28 02:05:32;;;;;;;4.63;3.15;;;3.90;99.90;;;;;;5016627;28;20053;-78
2021/01/28 02:07:58;;;;;;;4.38;2.90;;;3.90;99.90;;;;;;5007057;28;20132;-78
2021/01/28 02:10:24;;;;;;;8.80;3.72;;;3.90;99.90;;;;;;5010678;28;20510;-78
2021/01/28 02:12:53;;;;;;;4.90;2.95;;;3.90;99.90;;;;;;5005616;28;20414;-78
2021/01/28 02:15:20;;;;;;;5.40;2.75;;;3.90;99.90;;;;;;5010182;28;20561;-77
2021/01/28 02:17:52;;;;;;;4.93;2.83;;;3.90;99.90;;;;;;5014747;28;20037;-77
2021/01/28 02:20:29;;;;;;;7.43;2.88;;;3.90;99.90;;;;;;5000578;28;20038;-77
2021/01/28 02:23:42;;;;;;;7.00;2.92;;;3.90;99.90;;;;;;5008359;28;20073;-77
2021/01/28 02:26:08;;;;;;;5.05;2.60;;;3.90;99.90;;;;;;5001116;28;20029;-78
2021/01/28 02:28:34;;;;;;;6.07;3.15;;;3.90;99.90;;;;;;5011152;28;20042;-78
2021/01/28 02:31:01;;;;;;;5.40;2.72;;;4.00;99.90;;;;;;5013906;28;20103;-78
2021/01/28 02:33:50;;;;;;;5.00;2.53;;;4.00;99.90;;;;;;4993297;28;20040;-78
2021/01/28 02:36:16;;;;;;;5.03;2.40;;;3.90;99.90;;;;;;4989510;28;20045;-77
2021/01/28 02:38:42;;;;;;;3.97;2.20;;;4.00;99.90;;;;;;5011139;28;20042;-77
2021/01/28 02:41:10;;;;;;;3.60;2.00;;;4.00;99.90;;;;;;5008206;28;20030;-78
2021/01/28 02:43:36;;;;;;;5.50;2.75;;;4.00;99.90;;;;;;5012079;28;20026;-78
2021/01/28 02:46:05;;;;;;;6.53;2.65;;;4.10;99.90;;;;;;5006190;28;20664;-78
2021/01/28 02:48:31;;;;;;;3.88;2.33;;;4.10;99.90;;;;;;5009018;28;20045;-79
2021/01/28 02:50:57;;;;;;;4.90;2.40;;;4.20;99.90;;;;;;5008051;28;20041;-78
2021/01/28 02:53:22;;;;;;;3.50;1.60;;;4.30;99.90;;;;;;4991664;28;20037;-79
2021/01/28 02:55:48;;;;;;;4.15;2.13;;;4.30;99.90;;;;;;5008470;28;20482;-79
2021/01/28 02:58:15;;;;;;;4.07;1.98;;;4.20;99.90;;;;;;5004240;28;20064;-79
2021/01/28 03:00:40;;;;;;;4.20;2.03;;;4.30;99.90;;;;;;5008526;28;20446;-79
2021/01/28 03:03:09;;;;;;;2.88;1.70;;;4.30;99.90;;;;;;5006139;28;20040;-79
2021/01/28 03:05:35;;;;;;;4.78;2.00;;;4.30;99.90;;;;;;4991878;28;20049;-79
2021/01/28 03:08:01;;;;;;;3.72;1.70;;;4.20;99.90;;;;;;4989548;28;20650;-79
2021/01/28 03:10:27;;;;;;;3.63;1.73;;;4.20;99.90;;;;;;5012522;28;20076;-78
2021/01/28 03:12:53;;;;;;;2.90;2.00;;;4.30;99.90;;;;;;4989259;28;20136;-78
2021/01/28 03:15:23;;;;;;;3.33;1.67;;;4.30;99.90;;;;;;5007311;28;20038;-77
2021/01/28 03:17:50;;;;;;;3.72;1.58;;;4.30;99.90;;;;;;5004852;28;20045;-78
2021/01/28 03:20:16;;;;;;;3.90;1.77;;;4.30;99.90;;;;;;5009298;28;20072;-76
2021/01/28 03:22:41;;;;;;;3.92;1.40;;;4.30;99.90;;;;;;5007741;28;20034;-78
2021/01/28 03:25:11;;;;;;;2.92;1.60;;;4.30;99.90;;;;;;4994234;28;20108;-78
2021/01/28 03:27:36;;;;;;;3.22;1.77;;;4.30;99.90;;;;;;4988822;28;20701;-78
2021/01/28 03:30:06;;;;;;;3.22;1.63;;;4.40;99.90;;;;;;4996292;28;20044;-78
2021/01/28 03:32:32;;;;;;;2.45;1.55;;;4.40;99.90;;;;;;5014263;28;20053;-76
2021/01/28 03:34:57;;;;;;;3.42;2.20;;;4.50;99.90;;;;;;5011559;28;20060;-77
2021/01/28 03:37:23;;;;;;;5.38;1.67;;;4.40;99.90;;;;;;5006073;28;20034;-76
2021/01/28 03:39:48;;;;;;;2.10;1.35;;;4.50;99.90;;;;;;5000567;28;20030;-77
2021/01/28 03:42:14;;;;;;;4.50;1.83;;;4.50;99.90;;;;;;5010088;28;20084;-77
2021/01/28 03:44:40;;;;;;;3.53;1.70;;;4.50;99.90;;;;;;4990426;28;20095;-78
2021/01/28 03:47:05;;;;;;;5.72;1.77;;;4.50;99.90;;;;;;5009238;28;20041;-77
2021/01/28 03:49:31;;;;;;;4.10;2.25;;;4.50;99.90;;;;;;5008747;28;20037;-77
2021/01/28 03:51:56;;;;;;;7.43;1.83;;;4.50;99.90;;;;;;5006191;28;20117;-78
2021/01/28 03:54:22;;;;;;;3.20;1.92;;;4.60;99.90;;;;;;5006680;28;20038;-79
2021/01/28 03:56:47;;;;;;;3.00;1.85;;;4.50;99.90;;;;;;5010082;28;20037;-76
2021/01/28 03:59:13;;;;;;;5.43;1.60;;;4.50;99.90;;;;;;5011594;28;20044;-77
2021/01/28 04:01:38;;;;;;;2.90;1.67;;;4.50;99.90;;;;;;5008438;28;20040;-78
2021/01/28 04:04:04;;;;;;;4.25;1.67;;;4.60;99.90;;;;;;5009405;28;20442;-78
2021/01/28 04:06:30;;;;;;;2.90;1.60;;;4.70;99.90;;;;;;5011088;28;20490;-77
2021/01/28 04:08:55;;;;;;;3.65;1.98;;;4.70;99.90;;;;;;5011245;28;20386;-78
2021/01/28 04:11:21;;;;;;;5.18;2.22;;;4.70;99.90;;;;;;5010829;28;20125;-77
2021/01/28 04:13:46;;;;;;;5.60;2.85;;;4.70;99.90;;;;;;5010059;28;20037;-76
2021/01/28 04:16:12;;;;;;;5.65;2.63;;;4.60;99.90;;;;;;5008686;28;20045;-77
2021/01/28 04:18:37;;;;;;;4.97;2.90;;;4.60;99.90;;;;;;5011086;28;20048;-77
2021/01/28 04:21:03;;;;;;;5.35;2.72;;;4.60;99.90;;;;;;5013637;28;20062;-77
2021/01/28 04:23:28;;;;;;;6.30;3.25;;;4.60;99.90;;;;;;5008109;28;20080;-78
2021/01/28 04:25:55;;;;;;;6.88;3.40;;;4.60;99.90;;;;;;5011293;28;20034;-78
2021/01/28 04:28:20;;;;;;;8.10;3.67;;;4.60;99.90;;;;;;4989836;28;20075;-78
2021/01/28 04:30:46;;;;;;;6.50;3.63;;;4.50;99.90;;;;;;5014406;28;20045;-78
2021/01/28 04:33:11;;;;;;;6.47;3.40;;;4.60;99.90;;;;;;5004477;28;20026;-78
2021/01/28 04:35:37;;;;;;;7.32;4.00;;;4.50;99.90;;;;;;5014360;28;20030;-78
2021/01/28 04:38:03;;;;;;;10.02;4.50;;;4.50;99.90;;;;;;5016554;28;20502;-78
2021/01/28 04:40:35;;;;;;;10.40;4.78;;;4.50;99.90;;;;;;5014502;28;20060;-76
2021/01/28 04:43:20;;;;;;;13.13;5.15;;;4.50;99.90;;;;;;5007020;28;20044;-78
2021/01/28 04:45:47;;;;;;;9.85;4.82;;;4.50;99.90;;;;;;4991738;28;20513;-78
2021/01/28 04:48:13;;;;;;;7.65;4.40;;;4.50;99.90;;;;;;4990785;28;20508;-78
2021/01/28 04:50:41;;;;;;;8.43;4.43;;;4.40;99.90;;;;;;5010854;28;20034;-77
2021/01/28 04:53:32;;;;;;;9.32;5.05;;;4.40;99.90;;;;;;5010086;28;20699;-77
2021/01/28 04:56:03;;;;;;;9.68;4.82;;;4.40;99.90;;;;;;5015579;28;20041;-78
2021/01/28 04:58:28;;;;;;;11.68;4.93;;;4.40;99.90;;;;;;5017302;28;21042;-78
2021/01/28 05:00:54;;;;;;;9.70;5.03;;;4.40;99.90;;;;;;5014925;28;20044;-78
2021/01/28 05:03:26;;;;;;;10.43;5.50;;;4.40;99.90;;;;;;5013085;28;21228;-78
2021/01/28 05:05:54;;;;;;;12.48;5.65;;;4.40;99.90;;;;;;5015166;28;20402;-78
2021/01/28 05:08:21;;;;;;;8.52;4.90;;;4.40;99.90;;;;;;4994810;28;20052;-78
2021/01/28 05:10:50;;;;;;;12.50;5.70;;;4.40;99.90;;;;;;5018812;28;20404;-77
2021/01/28 05:13:37;;;;;;;9.43;5.50;;;4.40;99.90;;;;;;4991326;28;20065;-77
2021/01/28 05:16:31;;;;;;;10.95;5.40;;;4.40;99.90;;;;;;4967548;28;20051;-78
2021/01/28 05:19:06;;;;;;;14.55;5.43;;;4.40;99.90;;;;;;4955510;28;20493;-77
2021/01/28 05:21:42;;;;;;;9.13;4.95;;;4.40;99.90;;;;;;4935685;28;20554;-78
2021/01/28 05:24:38;;;;;;;12.32;5.47;;;4.40;99.90;;;;;;4971819;28;20498;-77
2021/01/28 05:27:31;;;;;;;10.18;5.43;;;4.40;99.90;;;;;;4946926;28;20413;-80
2021/01/28 05:29:59;;;;;;;10.90;5.50;;;4.40;99.90;;;;;;4974744;28;20064;-79
2021/01/28 05:32:46;;;;;;;11.20;5.32;;;4.40;99.90;;;;;;4963470;28;20764;-77
2021/01/28 05:35:20;;;;;;;12.80;5.05;;;4.40;99.90;;;;;;4943516;28;20076;-76
2021/01/28 05:37:47;;;;;;;10.25;5.47;;;4.40;99.90;;;;;;4940250;28;20239;-77
2021/01/28 05:40:18;;;;;;;9.43;5.40;;;4.40;99.90;;;;;;4945610;28;20042;-77
2021/01/28 05:42:44;;;;;;;10.30;5.22;;;4.40;99.90;;;;;;4941883;28;20472;-77
2021/01/28 05:45:38;;;;;;;11.95;5.50;;;4.40;99.90;;;;;;4986319;28;20112;-77
2021/01/28 05:48:20;;;;;;;13.07;4.95;;;4.40;99.90;;;;;;4945335;28;20557;-79
2021/01/28 05:50:45;;;;;;;13.48;5.95;;;4.40;99.90;;;;;;4955137;28;20058;-79
2021/01/28 05:53:15;;;;;;;10.10;5.25;;;4.40;99.90;;;;;;4976615;28;20081;-77
2021/01/28 05:55:42;;;;;;;15.68;6.95;;;4.40;99.90;;;;;;4982757;28;20049;-78
2021/01/28 05:58:23;;;;;;;9.35;4.85;;;4.40;99.90;;;;;;4937000;28;20038;-78
2021/01/28 06:00:54;;;;;;;10.88;5.53;;;4.40;99.90;;;;;;4975453;28;20099;-83
2021/01/28 06:03:32;;;;;;;10.63;5.28;;;4.40;99.90;;;;;;4932922;28;20045;-76
2021/01/28 06:06:37;;;;;;;10.65;5.47;;;4.40;99.90;;;;;;4972957;28;20096;-76
2021/01/28 06:09:21;;;;;;;10.85;5.15;;;4.40;99.90;;;;;;4958092;28;20052;-78
2021/01/28 06:12:14;;;;;;;10.93;5.40;;;4.40;99.90;;;;;;4967549;28;20033;-78
2021/01/28 06:14:50;;;;;;;8.20;4.93;;;4.40;99.90;;;;;;4955534;28;20125;-78
2021/01/28 06:17:41;;;;;;;16.75;5.47;;;4.40;99.90;;;;;;4961445;28;20052;-79
2021/01/28 06:20:21;;;;;;;9.27;5.35;;;4.40;99.90;;;;;;4943306;28;20037;-79
2021/01/28 06:23:25;;;;;;;11.02;4.93;;;4.50;99.90;;;;;;4970987;28;20041;-79
2021/01/28 06:25:57;;;;;;;11.50;5.03;;;4.40;99.90;;;;;;4945326;28;20062;-79
2021/01/28 06:29:00;;;;;;;13.57;4.93;;;4.50;99.90;;;;;;4988917;28;20046;-78
2021/01/28 06:31:40;;;;;;;10.85;5.40;;;4.40;99.90;;;;;;4952353;28;20039;-79
2021/01/28 06:34:10;;;;;;;8.73;4.90;;;4.50;99.90;;;;;;4998168;28;20042;-77
2021/01/28 06:36:43;;;;;;;12.00;5.85;;;4.40;99.90;;;;;;5001775;28;20041;-77
2021/01/28 06:39:32;;;;;;;15.95;5.30;;;4.40;99.90;;;;;;5012667;28;20044;-78
2021/01/28 06:42:11;;;;;;;8.43;4.60;;;4.40;99.90;;;;;;5009746;28;20125;-77
2021/01/28 06:44:43;;;;;;;9.38;4.75;;;4.30;99.90;;;;;;5014121;28;20037;-77
2021/01/28 06:47:21;;;;;;;7.90;4.07;;;4.40;99.90;;;;;;5002844;28;20038;-77
2021/01/28 06:49:58;;;;;;;8.13;4.25;;;4.40;99.90;;;;;;5011460;28;20025;-78
2021/01/28 06:52:35;;;;;;;8.60;4.05;;;4.40;99.90;;;;;;5013041;28;20053;-77
2021/01/28 06:55:07;;;;;;;8.40;4.10;;;4.40;99.90;;;;;;4996666;28;20026;-78
2021/01/28 06:58:01;;;;;;;8.18;4.30;;;4.40;99.90;;;;;;4994773;28;20038;-77
2021/01/28 07:00:44;;;;;;;11.68;4.68;;;4.40;99.90;;;;;;5012627;28;20045;-77
2021/01/28 07:03:24;;;;;;;10.63;4.53;;;4.50;99.90;;;;;;5011902;28;20045;-78
2021/01/28 07:06:04;;;;;;;9.70;4.15;;;4.50;99.90;;;;;;5008590;28;20041;-78
2021/01/28 07:08:51;;;;;;;10.88;4.60;;;4.50;99.90;;;;;;5013870;28;20117;-77
2021/01/28 07:11:28;;;;;;;8.65;4.05;;;4.60;99.90;;;;;;5012745;28;20038;-78
2021/01/28 07:13:54;;;;;;;9.45;4.38;;;4.60;99.90;;;;;;5012503;28;20506;-78
2021/01/28 07:16:32;;;;;;;6.88;3.75;;;4.60;99.90;;;;;;4994921;28;20056;-79
2021/01/28 07:19:27;;;;;;;11.15;4.63;;;4.70;99.90;;;;;;4967177;28;20037;-78
2021/01/28 07:21:54;;;;;;;8.85;3.75;;;4.70;99.90;;;;;;4994098;28;20040;-78
2021/01/28 07:24:25;;;;;;;7.50;3.92;;;4.60;99.90;;;;;;4983914;28;20042;-78
2021/01/28 07:26:57;;;;;;;12.30;3.88;;;4.70;99.90;;;;;;4996325;28;20045;-78
2021/01/28 07:29:45;;;;;;;10.38;3.78;;;4.70;99.90;;;;;;4980512;28;20041;-78
2021/01/28 07:32:33;;;;;;;10.02;3.80;;;4.70;99.90;;;;;;4969817;28;20369;-78
2021/01/28 07:35:26;;;;;;;12.20;4.05;;;4.70;99.90;;;;;;4987649;28;20044;-77
2021/01/28 07:37:53;;;;;;;7.97;3.72;;;4.70;99.90;;;;;;4977509;28;20088;-77
2021/01/28 07:41:03;;;;;;;10.70;3.53;;;4.70;99.90;;;;;;5008897;28;20124;-78
2021/01/28 07:43:36;;;;;;;10.77;4.35;;;4.70;99.90;;;;;;4978452;28;20060;-78
2021/01/28 07:46:17;;;;;;;9.17;4.97;;;4.60;99.90;;;;;;5008571;28;20116;-79
2021/01/28 07:48:45;;;;;;;10.48;4.47;;;4.70;99.90;;;;;;5009840;28;20049;-78
2021/01/28 07:51:33;;;;;;;10.43;4.15;;;4.70;99.90;;;;;;5013089;28;20068;-78
2021/01/28 07:54:00;;;;;;;9.40;4.85;;;4.70;99.90;;;;;;5012752;28;20042;-78
2021/01/28 07:56:35;;;;;;;8.88;4.25;;;4.80;99.90;;;;;;5017110;28;20070;-76
2021/01/28 07:59:34;;;;;;;8.27;3.72;;;4.90;99.90;;;;;;5011247;28;20405;-77
2021/01/28 08:02:34;;;;;;;12.90;3.47;;;4.80;99.90;;;;;;4984443;28;20073;-77
2021/01/28 08:05:09;;;;;;;7.10;3.33;;;4.90;99.90;;;;;;5011427;28;20052;-76
2021/01/28 08:07:38;;;;;;;8.85;4.18;;;4.90;99.90;;;;;;5006683;28;20045;-77
2021/01/28 08:10:19;;;;;;;7.22;3.85;;;4.90;99.90;;;;;;5007185;28;20121;-77
2021/01/28 08:12:54;;;;;;;7.47;3.85;;;4.90;99.90;;;;;;4982219;28;20113;-76
2021/01/28 08:15:32;;;;;;;6.40;3.45;;;4.90;99.90;;;;;;4998199;28;20404;-79
2021/01/28 08:18:10;;;;;;;9.65;4.05;;;4.90;99.90;;;;;;4978277;28;20118;-78
2021/01/28 08:20:36;;;;;;;8.57;3.10;;;4.90;99.90;;;;;;5013761;28;20053;-76
2021/01/28 08:23:26;;;;;;;6.28;2.95;;;4.90;99.90;;;;;;4976915;28;20057;-79
2021/01/28 08:25:53;;;;;;;6.32;3.00;;;5.00;99.90;;;;;;4979807;28;20036;-78
2021/01/28 08:28:19;;;;;;;7.10;3.60;;;5.00;99.90;;;;;;5014857;28;20037;-78
2021/01/28 08:30:45;;;;;;;4.60;2.53;;;5.00;99.90;;;;;;5008154;28;20133;-78
2021/01/28 08:33:21;;;;;;;6.03;2.60;;;5.00;99.90;;;;;;5008140;28;20042;-77
2021/01/28 08:35:52;;;;;;;6.55;2.45;;;5.10;99.90;;;;;;5008866;28;20045;-76
2021/01/28 08:38:22;;;;;;;4.75;2.30;;;5.10;99.90;;;;;;5007981;28;20041;-76
2021/01/28 08:40:56;;;;;;;4.72;2.40;;;5.10;99.90;;;;;;5011050;28;20091;-77
2021/01/28 08:43:22;;;;;;;4.35;2.35;;;5.20;99.90;;;;;;5012729;28;20156;-77
2021/01/28 08:45:48;;;;;;;5.63;1.90;;;5.20;99.90;;;;;;5011306;28;20411;-76
2021/01/28 08:48:23;;;;;;;6.38;2.20;;;5.20;99.90;;;;;;5011513;28;20136;-77
2021/01/28 08:50:48;;;;;;;4.65;2.30;;;5.30;99.90;;;;;;5007386;28;20096;-77
2021/01/28 08:53:22;;;;;;;5.18;2.28;;;5.30;99.90;;;;;;5008029;28;20034;-77
2021/01/28 08:55:48;;;;;;;3.33;2.00;;;5.30;99.90;;;;;;5007615;28;20034;-78
2021/01/28 08:58:31;;;;;;;8.05;1.85;;;5.40;99.90;;;;;;5005606;28;20827;-77
2021/01/28 09:01:02;;;;;;;3.53;1.75;;;5.40;99.90;;;;;;5006257;28;20044;-77
2021/01/28 09:03:40;;;;;;;3.70;2.10;;;5.40;99.90;;;;;;4990187;28;20115;-76
2021/01/28 09:06:05;;;;;;;3.95;1.95;;;5.50;99.90;;;;;;5009543;28;20128;-76
2021/01/28 09:08:37;;;;;;;3.38;2.00;;;5.50;99.90;;;;;;5010958;28;20085;-76
2021/01/28 09:11:11;;;;;;;2.65;1.50;;;5.50;99.90;;;;;;5003785;28;20038;-77
2021/01/28 09:13:36;;;;;;;3.20;1.42;;;5.60;99.90;;;;;;4995805;28;20392;-76
2021/01/28 09:16:18;;;;;;;5.90;1.60;;;5.60;99.90;;;;;;5004280;28;20041;-76
2021/01/28 09:18:50;;;;;;;5.45;2.10;;;5.60;99.90;;;;;;5010348;28;20276;-77
2021/01/28 09:21:19;;;;;;;2.80;1.55;;;5.60;99.90;;;;;;5007819;28;20065;-77
2021/01/28 09:24:01;;;;;;;6.13;1.52;;;5.60;99.90;;;;;;5016805;28;20557;-77
2021/01/28 09:26:33;;;;;;;4.00;1.77;;;5.70;99.90;;;;;;5012538;28;20038;-78
2021/01/28 09:29:37;;;;;;;3.00;1.67;;;5.70;99.90;;;;;;5012490;28;20041;-79
2021/01/28 09:32:08;;;;;;;5.03;1.63;;;5.80;99.90;;;;;;5009593;28;20164;-78
2021/01/28 09:34:33;;;;;;;2.55;1.33;;;5.80;99.90;;;;;;5016476;28;20088;-78
2021/01/28 09:37:05;;;;;;;2.55;1.35;;;5.80;99.90;;;;;;5010761;28;20982;-77
2021/01/28 09:39:52;;;;;;;3.75;1.55;;;5.80;99.90;;;;;;5015241;28;20073;-77
2021/01/28 09:42:28;;;;;;;5.45;1.70;;;5.80;99.90;;;;;;5014413;28;20236;-78
2021/01/28 09:44:55;;;;;;;3.03;1.67;;;5.80;99.90;;;;;;5010470;28;20088;-78
2021/01/28 09:47:23;;;;;;;4.05;1.58;;;5.80;99.90;;;;;;5015016;28;20073;-77
2021/01/28 09:49:57;;;;;;;3.33;1.75;;;5.80;99.90;;;;;;5015131;28;20049;-76
2021/01/28 09:52:31;;;;;;;3.72;1.58;;;5.90;99.90;;;;;;5018861;28;20505;-77
2021/01/28 09:55:06;;;;;;;2.67;1.63;;;5.90;99.90;;;;;;5010815;28;20041;-78
2021/01/28 09:57:31;;;;;;;3.85;1.65;;;5.90;99.90;;;;;;5009503;28;20133;-77
2021/01/28 09:59:57;;;;;;;2.78;1.75;;;6.00;99.90;;;;;;5012984;28;20113;-76
2021/01/28 10:02:51;;;;;;;3.83;1.80;;;5.90;99.90;;;;;;5011088;28;20046;-77
2021/01/28 10:05:19;;;;;;;5.60;1.40;;;6.00;99.90;;;;;;5007066;28;20049;-79
2021/01/28 10:07:47;;;;;;;3.88;1.70;;;6.10;99.90;;;;;;5013490;28;20093;-79
2021/01/28 10:10:14;;;;;;;2.80;1.45;;;6.10;99.90;;;;;;5010498;28;20033;-79
2021/01/28 10:12:40;;;;;;;3.35;1.30;;;6.10;99.90;;;;;;4994388;28;20033;-78
2021/01/28 10:15:07;;;;;;;2.53;1.30;;;6.20;99.90;;;;;;5012301;28;20041;-78
2021/01/28 10:17:33;;;;;;;3.47;1.15;;;6.20;99.90;;;;;;4991160;28;22737;-78
2021/01/28 10:19:58;;;;;;;1.55;0.90;;;6.40;99.90;;;;;;5011465;28;20038;-77
2021/01/28 10:22:24;;;;;;;3.63;1.65;;;6.50;99.90;;;;;;5011405;28;20067;-79
2021/01/28 10:24:50;;;;;;;4.53;1.30;;;6.60;99.90;;;;;;5007754;28;20371;-77
2021/01/28 10:27:16;;;;;;;2.92;0.98;;;6.60;99.90;;;;;;5005610;28;20498;-77
2021/01/28 10:29:43;;;;;;;2.70;1.13;;;6.60;99.90;;;;;;4991183;28;20139;-77
2021/01/28 10:32:13;;;;;;;3.88;1.08;;;6.60;99.90;;;;;;5011969;28;20033;-78
2021/01/28 10:34:39;;;;;;;1.92;1.02;;;6.60;99.90;;;;;;4991753;28;20595;-78
2021/01/28 10:37:06;;;;;;;3.33;1.65;;;6.70;99.90;;;;;;5006576;28;20038;-76
2021/01/28 10:39:31;;;;;;;2.70;1.20;;;6.60;99.90;;;;;;4999913;28;20490;-77
2021/01/28 10:41:57;;;;;;;2.05;1.00;;;6.60;99.90;;;;;;5008845;28;20034;-77
2021/01/28 10:44:23;;;;;;;4.38;1.20;;;6.60;99.90;;;;;;5006478;28;20101;-76
2021/01/28 10:46:50;;;;;;;4.35;1.05;;;6.60;99.90;;;;;;5009208;28;20036;-76
2021/01/28 10:49:15;;;;;;;6.20;1.55;;;6.70;99.90;;;;;;4988763;28;20077;-76
2021/01/28 10:51:41;;;;;;;4.55;1.92;;;6.70;99.90;;;;;;5006054;28;20041;-76
2021/01/28 10:54:07;;;;;;;2.60;1.23;;;6.70;99.90;;;;;;5012691;28;20519;-77
2021/01/28 10:56:32;;;;;;;3.40;1.23;;;6.80;99.90;;;;;;5002537;28;20521;-77
2021/01/28 10:58:58;;;;;;;1.88;1.10;;;6.70;99.90;;;;;;5010403;28;20061;-78
2021/01/28 11:01:23;;;;;;;5.55;1.63;;;6.80;99.90;;;;;;5013539;28;20033;-79
2021/01/28 11:03:49;;;;;;;2.75;1.30;;;6.90;99.90;;;;;;5007760;28;20030;-78
2021/01/28 11:06:15;;;;;;;3.63;1.63;;;6.90;99.90;;;;;;5004637;28;20178;-78
2021/01/28 11:08:40;;;;;;;3.03;1.40;;;7.00;99.90;;;;;;4987894;28;20042;-78
2021/01/28 11:11:06;;;;;;;2.90;1.15;;;7.00;99.90;;;;;;5005274;28;20552;-78
2021/01/28 11:13:32;;;;;;;1.73;1.00;;;7.00;99.90;;;;;;4986949;28;20060;-76
2021/01/28 11:15:58;;;;;;;3.42;1.20;;;7.10;99.90;;;;;;5010383;28;20616;-76
2021/01/28 11:18:24;;;;;;;2.25;1.08;;;7.10;99.90;;;;;;5003359;28;20084;-75
2021/01/28 11:20:49;;;;;;;4.15;1.00;;;7.10;99.90;;;;;;5007995;28;20084;-76
2021/01/28 11:23:15;;;;;;;7.03;1.30;;;7.10;99.90;;;;;;5005271;28;20096;-76
2021/01/28 11:25:41;;;;;;;5.28;1.60;;;7.10;99.90;;;;;;4986741;28;20044;-77
2021/01/28 11:28:07;;;;;;;3.17;1.00;;;7.10;99.90;;;;;;5008183;28;20057;-77
2021/01/28 11:30:34;;;;;;;2.63;0.88;;;7.10;99.90;;;;;;5005304;28;20053;-78
2021/01/28 11:33:01;;;;;;;2.15;0.95;;;7.10;99.90;;;;;;5011988;28;20045;-77
2021/01/28 11:35:30;;;;;;;1.98;1.10;;;7.20;99.90;;;;;;5015851;28;20038;-78
2021/01/28 11:37:59;;;;;;;3.58;1.25;;;7.40;99.90;;;;;;5006934;28;20482;-77
2021/01/28 11:40:27;;;;;;;3.10;1.45;;;7.50;99.90;;;;;;5005029;28;20046;-78
2021/01/28 11:42:53;;;;;;;5.80;1.42;;;7.70;99.90;;;;;;5003785;28;20026;-79
2021/01/28 11:45:22;;;;;;;3.53;0.95;;;7.90;99.90;;;;;;5006944;28;20108;-78
2021/01/28 11:47:48;;;;;;;2.78;0.82;;;7.90;99.90;;;;;;5007577;28;20417;-77
2021/01/28 11:50:13;;;;;;;2.97;1.00;;;7.90;99.90;;;;;;5008700;28;20034;-77
2021/01/28 11:52:39;;;;;;;3.30;1.30;;;8.00;99.90;;;;;;5005770;28;20040;-77
2021/01/28 11:55:07;;;;;;;1.80;0.93;;;8.00;99.90;;;;;;4988273;28;22218;-76
2021/01/28 11:57:33;;;;;;;3.67;1.10;;;8.00;99.90;;;;;;5007681;28;20033;-77
2021/01/28 11:59:58;;;;;;;4.88;1.10;;;8.00;99.90;;;;;;5003092;28;20018;-79
2021/01/28 12:02:24;;;;;;;3.38;1.08;;;8.00;99.90;;;;;;5008296;28;20565;-78
2021/01/28 12:04:49;;;;;;;4.38;1.55;;;8.10;99.90;;;;;;5004236;28;20060;-77
2021/01/28 12:07:16;;;;;;;3.63;1.63;;;8.20;99.90;;;;;;4990226;28;20034;-77
2021/01/28 12:09:42;;;;;;;4.72;1.10;;;8.30;99.90;;;;;;4989256;28;20036;-76
2021/01/28 12:12:08;;;;;;;3.17;1.20;;;8.40;99.90;;;;;;5004297;28;20030;-77
2021/01/28 12:14:33;;;;;;;1.80;0.80;;;8.60;99.90;;;;;;5005625;28;20045;-77
2021/01/28 12:16:59;;;;;;;1.55;0.90;;;8.70;99.90;;;;;;5007347;28;20045;-77
2021/01/28 12:19:24;;;;;;;3.38;1.00;;;8.70;99.90;;;;;;5006305;28;20080;-77
2021/01/28 12:21:50;;;;;;;2.45;1.20;;;8.70;99.90;;;;;;5003933;28;20048;-77
2021/01/28 12:24:16;;;;;;;2.70;0.93;;;8.60;99.90;;;;;;5003910;28;20042;-77
2021/01/28 12:26:41;;;;;;;2.38;1.17;;;8.60;99.90;;;;;;4988033;28;20034;-77
2021/01/28 12:29:07;;;;;;;1.58;0.80;;;8.60;99.90;;;;;;5003799;28;20383;-78
2021/01/28 12:31:33;;;;;;;2.03;1.40;;;8.70;99.90;;;;;;5004151;28;20044;-78
2021/01/28 12:33:58;;;;;;;1.70;1.00;;;9.00;99.90;;;;;;5005392;28;20108;-78
2021/01/28 12:36:24;;;;;;;7.65;1.35;;;9.10;99.90;;;;;;5008029;28;20041;-78
2021/01/28 12:38:50;;;;;;;3.40;1.20;;;9.10;99.90;;;;;;5005984;28;20342;-77
2021/01/28 12:41:15;;;;;;;2.05;1.05;;;9.10;99.90;;;;;;4989328;28;20045;-77
2021/01/28 12:43:41;;;;;;;1.52;0.90;;;9.10;99.90;;;;;;5003986;28;20084;-77
2021/01/28 12:46:06;;;;;;;2.00;0.80;;;9.10;99.90;;;;;;5003866;28;20058;-78
2021/01/28 12:48:32;;;;;;;2.58;1.02;;;9.20;99.90;;;;;;5003027;28;20173;-79
2021/01/28 12:50:57;;;;;;;3.67;0.85;;;9.20;99.90;;;;;;5003531;28;20092;-78
2021/01/28 12:53:23;;;;;;;1.70;0.75;;;9.20;99.90;;;;;;4992836;28;20059;-78
2021/01/28 12:55:48;;;;;;;1.95;0.70;;;9.20;99.90;;;;;;5002459;28;20030;-77
2021/01/28 12:58:14;;;;;;;3.17;0.70;;;9.20;99.90;;;;;;5006045;28;20057;-78
2021/01/28 13:00:40;;;;;;;4.43;0.93;;;9.20;99.90;;;;;;5007138;28;20038;-78
2021/01/28 13:03:06;;;;;;;3.47;0.77;;;9.20;99.90;;;;;;4999812;28;20440;-78
2021/01/28 13:05:31;;;;;;;2.97;1.00;;;9.20;99.90;;;;;;5011184;28;20045;-78
2021/01/28 13:07:57;;;;;;;2.15;0.90;;;9.20;99.90;;;;;;5013566;28;20026;-77
2021/01/28 13:10:23;;;;;;;4.35;1.05;;;9.10;99.90;;;;;;5013664;28;20274;-78
2021/01/28 13:12:49;;;;;;;2.20;1.20;;;9.10;99.90;;;;;;5010034;28;20034;-78
2021/01/28 13:15:18;;;;;;;2.35;1.20;;;9.20;99.90;;;;;;4988984;28;20035;-78